Terminal Aerodrome Forecast
Issued by NWS

Home | Current Version | Previous Version | Text Only | Print | Product List | Glossary On
Versions: 1 2 3 4 5 6 7 8 9 10 11 12 13 14 15 16 17 18 19 20 21 22 23 24 25 26 27 28 29 30 31 32 33 34 35 36 37 38
276
FTUS41 KBOX 231729 CCA
TAFBED
TAF COR
KBED 231729Z 2318/2418 21012G20KT P6SM VCSH BKN040
      TEMPO 2318/2319 5SM -TSRA OVC025CB
     FM240300 21011KT P6SM VCSH OVC060
     FM240800 21009KT P6SM -SHRA OVC008
     FM241300 24008KT P6SM -SHRA OVC040
     FM241600 29010G19KT P6SM VCSH BKN045=

USA.gov is the U.S. government's official web portal to all federal, state and local government web resources and services.